메인 페이지
METAR-TAF:

METAR-TAF

공항 :

옐로나이프, 노스웨스트 준주, 캐나다

위도: 62-28N, 경도: 114-27W, 고도: 205m

현재 날씨관측

예보는 57분 전, 17:00시(UTC)에 발표되었습니다.
남동7kt
온도 6°C
습도 87%
기압 1007 hPa
시정: 24.1km
고도 1000ft 상공 구름 조금
고도 10000ft 상공 구름 보통
고도 24000ft 상공 구름 많음

METAR: CYZF 251700Z 13007KT 15SM FEW010 SCT100 BKN240 06/04 A2974 RMK SC1AC4CI2 SC TR SLP086

시각: 11:57 (17:57 UTC)

예보

예보는 19분 전, 17:38시(UTC)에 발표되었습니다.
예보 대상 시간: 25일 18시부터 26일 18시까지 (UTC)
남남동10kt
시정: 10km
고도 10000ft 상공 구름 보통
고도 24000ft 상공 구름 많음
일시적
25일 18시부터 26일 09시까지 (UTC)
고도 1000ft 상공 구름 조금
고도 10000ft 상공 구름 많음
전환 중
26일 03시부터 26일 05시까지 (UTC)
8kt
26일 0900시부터 (UTC)
북북서10kt, 순간 최대 풍속 20kt
시정: 10km
고도 700ft 상공 구름 보통
고도 3000ft 상공 흐림
일시적
26일 09시부터 26일 16시까지 (UTC)
시정: 6.4km
고도 700ft 상공 구름 많음
고도 2000ft 상공 흐림
약한소나기, 박무
26일 1600시부터 (UTC)
북북서15kt, 순간 최대 풍속 25kt
시정: 10km
고도 1000ft 상공 구름 많음

TAF: CYZF 251738Z 2518/2618 16010KT P6SM SCT100 BKN240 TEMPO 2518/2609 FEW010 BKN100 BECMG 2603/2605 36008KT FM260900 34010G20KT P6SM SCT007 OVC030 TEMPO 2609/2616 4SM -SHRA BR BKN007 OVC020 FM261600 34015G25KT P6SM BKN010 RMK NXT FCST BY 260000Z

4,000개 이상의 공항 관측 자료 및 예보 (METAR 및 TAF 보고).

지도상에서 검색 가능한 기상관측소가 노란 점과 빨간 점으로 표시되어 있습니다.

기상관측소 명을 보려면 표시 위로 마우스를 이동하세요.

날씨 관측과 예보를 보려면 클릭하세요.

지도 변경 : 확대하려면 엑스 표시가 있는 녹색 버튼, 축소하려면 빼기 표시가 있는 녹색 버튼, 다음 페이지의 지도를 보려면 녹색 화살표를 클릭하세요.


METAR-TAF: